Time;durP1;ratioP1;P1;durP2;ratioP2;P2;SDS_P1;SDS_P2;PMS_P1;PMS_P2;Temp;Humidity;BMP_temperature;BMP_pressure;BME280_temperature;BME280_humidity;BME280_pressure;Samples;Min_cycle;Max_cycle;Signal;HPM_P1;HPM_P2
2020/12/17 00:01:15;;;;;;;;;;;4.50;99.90;;;;;;5099024;28;19924;-69
2020/12/17 00:03:41;;;;;;;;;;;4.40;99.90;;;;;;5093229;28;19924;-69
2020/12/17 00:06:11;;;;;;;;;;;4.40;99.90;;;;;;5093384;28;19934;-69
2020/12/17 00:08:37;;;;;;;;;;;4.30;99.90;;;;;;5093202;28;19958;-69
2020/12/17 00:11:03;;;;;;;;;;;4.20;99.90;;;;;;5093059;28;19924;-69
2020/12/17 00:13:30;;;;;;;;;;;4.20;99.90;;;;;;5101392;28;19931;-69
2020/12/17 00:15:56;;;;;;;;;;;4.20;99.90;;;;;;5113654;28;19924;-69
2020/12/17 00:18:21;;;;;;;;;;;4.20;99.90;;;;;;5113617;28;19931;-69
2020/12/17 00:20:47;;;;;;;;;;;4.20;99.90;;;;;;5113444;28;19927;-69
2020/12/17 00:23:13;;;;;;;;;;;4.30;99.90;;;;;;5113103;28;19923;-69
2020/12/17 00:25:40;;;;;;;;;;;4.30;99.90;;;;;;5113331;28;19923;-69
2020/12/17 00:28:07;;;;;;;;;;;4.30;99.90;;;;;;5113168;28;20321;-69
2020/12/17 00:30:33;;;;;;;;;;;4.30;99.90;;;;;;5113259;28;19924;-69
2020/12/17 00:32:59;;;;;;;;;;;4.30;99.90;;;;;;5113100;28;19931;-69
2020/12/17 00:35:25;;;;;;;;;;;4.30;99.90;;;;;;5113173;28;19924;-68
2020/12/17 00:37:51;;;;;;;;;;;4.30;99.90;;;;;;5112944;28;19973;-69
2020/12/17 00:40:17;;;;;;;;;;;4.30;99.90;;;;;;5111696;28;19924;-69
2020/12/17 00:42:43;;;;;;;;;;;4.30;99.90;;;;;;5092622;28;19935;-69
2020/12/17 00:45:10;;;;;;;;;;;4.40;99.90;;;;;;5092714;28;19969;-69
2020/12/17 00:47:36;;;;;;;;;;;4.40;99.90;;;;;;5092989;28;19924;-69
2020/12/17 00:50:03;;;;;;;;;;;4.50;99.90;;;;;;5092619;28;19924;-71
2020/12/17 00:52:29;;;;;;;;;;;4.50;99.90;;;;;;5092289;28;19928;-70
2020/12/17 00:54:55;;;;;;;;;;;4.50;99.90;;;;;;5096664;28;19928;-69
2020/12/17 00:57:24;;;;;;;;;;;4.60;99.90;;;;;;5112400;28;20434;-71
2020/12/17 00:59:50;;;;;;;;;;;4.60;99.90;;;;;;5112959;28;19924;-71
2020/12/17 01:02:17;;;;;;;;;;;4.70;99.90;;;;;;5112747;28;19946;-69
2020/12/17 01:04:43;;;;;;;;;;;4.70;99.90;;;;;;5112718;28;19930;-68
2020/12/17 01:07:10;;;;;;;;;;;4.70;99.90;;;;;;5112651;28;19925;-71
2020/12/17 01:09:36;;;;;;;;;;;4.70;99.90;;;;;;5098318;28;19924;-71
2020/12/17 01:12:04;;;;;;;;;;;4.70;99.90;;;;;;5092193;28;19924;-71
2020/12/17 01:14:30;;;;;;;;;;;4.70;99.90;;;;;;5092365;28;19924;-71
2020/12/17 01:16:56;;;;;;;;;;;4.80;99.90;;;;;;5092411;28;19931;-70
2020/12/17 01:19:23;;;;;;;;;;;4.80;99.90;;;;;;5092343;28;19924;-70
2020/12/17 01:21:50;;;;;;;;;;;4.70;99.90;;;;;;5092166;28;19924;-72
2020/12/17 01:24:16;;;;;;;;;;;4.80;99.90;;;;;;5092187;28;19931;-71
2020/12/17 01:26:42;;;;;;;;;;;4.80;99.90;;;;;;5092306;28;19924;-71
2020/12/17 01:29:08;;;;;;;;;;;4.80;99.90;;;;;;5092279;28;20396;-71
2020/12/17 01:31:34;;;;;;;;;;;4.70;99.90;;;;;;5092234;28;19986;-70
2020/12/17 01:34:00;;;;;;;;;;;4.80;99.90;;;;;;5091954;28;19936;-70
2020/12/17 01:36:26;;;;;;;;;;;4.80;99.90;;;;;;5099143;28;19980;-71
2020/12/17 01:38:52;;;;;;;;;;;4.80;99.90;;;;;;5112747;28;19924;-70
2020/12/17 01:41:18;;;;;;;;;;;4.80;99.90;;;;;;5096136;28;19924;-70
2020/12/17 01:43:45;;;;;;;;;;;4.80;99.90;;;;;;5091949;28;19974;-70
2020/12/17 01:46:12;;;;;;;;;;;4.80;99.90;;;;;;5092113;28;19924;-71
2020/12/17 01:48:39;;;;;;;;;;;4.80;99.90;;;;;;5092096;28;19931;-70
2020/12/17 01:51:05;;;;;;;;;;;4.80;99.90;;;;;;5092330;28;20304;-70
2020/12/17 01:53:35;;;;;;;;;;;4.90;99.90;;;;;;5091970;28;19969;-70
2020/12/17 01:56:02;;;;;;;;;;;4.80;99.90;;;;;;5091967;28;19931;-70
2020/12/17 01:58:31;;;;;;;;;;;4.80;99.90;;;;;;5092162;28;19973;-70
2020/12/17 02:00:58;;;;;;;;;;;4.80;99.90;;;;;;5107285;28;19924;-70
2020/12/17 02:03:24;;;;;;;;;;;4.80;99.90;;;;;;5110320;28;19924;-70
2020/12/17 02:05:50;;;;;;;;;;;4.80;99.90;;;;;;5092064;28;19925;-71
2020/12/17 02:08:18;;;;;;;;;;;4.80;99.90;;;;;;5092136;28;19977;-70
2020/12/17 02:10:45;;;;;;;;;;;4.80;99.90;;;;;;5100587;28;20426;-70
2020/12/17 02:13:12;;;;;;;;;;;4.90;99.90;;;;;;5115790;28;19931;-70
2020/12/17 02:15:38;;;;;;;;;;;4.90;99.90;;;;;;5115937;28;19928;-70
2020/12/17 02:18:04;;;;;;;;;;;4.80;99.90;;;;;;5115039;28;19955;-70
2020/12/17 02:20:30;;;;;;;;;;;4.90;99.90;;;;;;5115753;28;19924;-70
2020/12/17 02:22:56;;;;;;;;;;;4.90;99.90;;;;;;5115551;28;19924;-70
2020/12/17 02:25:23;;;;;;;;;;;4.80;99.90;;;;;;5110918;28;20373;-70
2020/12/17 02:27:49;;;;;;;;;;;4.90;99.90;;;;;;5097448;28;19935;-70
2020/12/17 02:30:15;;;;;;;;;;;4.90;99.90;;;;;;5115467;28;20292;-70
2020/12/17 02:32:41;;;;;;;;;;;4.80;99.90;;;;;;5113916;28;20376;-70
2020/12/17 02:35:09;;;;;;;;;;;4.80;99.90;;;;;;5095245;28;19977;-70
2020/12/17 02:37:36;;;;;;;;;;;4.70;99.90;;;;;;5095003;28;20045;-69
2020/12/17 02:40:02;;;;;;;;;;;4.70;99.90;;;;;;5112787;28;19924;-69
2020/12/17 02:42:29;;;;;;;;;;;7.80;99.90;;;;;;5115202;28;19927;-70
2020/12/17 02:44:55;;;;;;;;;;;4.60;99.90;;;;;;5115349;28;19924;-70
2020/12/17 02:47:21;;;;;;;;;;;4.70;99.90;;;;;;5115317;28;20307;-69
2020/12/17 02:49:47;;;;;;;;;;;4.60;99.90;;;;;;5115337;28;19931;-70
2020/12/17 02:52:13;;;;;;;;;;;4.50;99.90;;;;;;5115041;28;19985;-70
2020/12/17 02:54:39;;;;;;;;;;;4.50;99.90;;;;;;5097430;28;20376;-70
2020/12/17 02:57:05;;;;;;;;;;;4.50;99.90;;;;;;5095869;28;19928;-70
2020/12/17 02:59:32;;;;;;;;;;;4.50;99.90;;;;;;5094889;28;19924;-70
2020/12/17 03:01:58;;;;;;;;;;;4.50;99.90;;;;;;5094499;28;19928;-70
2020/12/17 03:04:24;;;;;;;;;;;4.50;99.90;;;;;;5094540;28;19930;-70
2020/12/17 03:06:50;;;;;;;;;;;4.40;99.90;;;;;;5104697;28;20308;-70
2020/12/17 03:09:16;;;;;;;;;;;4.40;99.90;;;;;;5114821;28;19927;-70
2020/12/17 03:11:42;;;;;;;;;;;4.40;99.90;;;;;;5114976;28;19924;-70
2020/12/17 03:14:08;;;;;;;;;;;4.30;99.90;;;;;;5114693;28;20711;-70
2020/12/17 03:16:35;;;;;;;;;;;4.30;99.90;;;;;;5114919;28;19930;-70
2020/12/17 03:19:01;;;;;;;;;;;4.30;99.90;;;;;;5114418;28;20282;-70
2020/12/17 03:21:28;;;;;;;;;;;4.20;99.90;;;;;;5113901;28;19924;-70
2020/12/17 03:23:54;;;;;;;;;;;4.30;99.90;;;;;;5102081;28;19931;-70
2020/12/17 03:26:20;;;;;;;;;;;4.30;99.90;;;;;;5094393;28;19931;-71
2020/12/17 03:28:46;;;;;;;;;;;4.20;99.90;;;;;;5094278;28;19924;-70
2020/12/17 03:31:12;;;;;;;;;;;4.10;99.90;;;;;;5094121;28;19924;-70
2020/12/17 03:33:39;;;;;;;;;;;4.10;99.90;;;;;;5104848;28;20296;-71
2020/12/17 03:36:05;;;;;;;;;;;4.00;99.90;;;;;;5114329;28;19923;-71
2020/12/17 03:38:31;;;;;;;;;;;4.00;99.90;;;;;;5114263;28;19931;-70
2020/12/17 03:40:57;;;;;;;;;;;4.00;99.90;;;;;;5114293;28;20369;-70
2020/12/17 03:43:23;;;;;;;;;;;4.00;99.90;;;;;;5113872;28;19924;-70
2020/12/17 03:45:49;;;;;;;;;;;3.90;99.90;;;;;;5114168;28;19923;-68
2020/12/17 03:48:15;;;;;;;;;;;3.90;99.90;;;;;;5113918;28;19924;-70
2020/12/17 03:50:42;;;;;;;;;;;3.80;99.90;;;;;;5114028;28;20300;-70
2020/12/17 03:53:08;;;;;;;;;;;3.80;99.90;;;;;;5113642;28;19966;-70
2020/12/17 03:55:34;;;;;;;;;;;3.80;99.90;;;;;;5114229;28;20327;-70
2020/12/17 03:57:59;;;;;;;;;;;3.80;99.90;;;;;;5114082;28;19924;-70
2020/12/17 04:00:25;;;;;;;;;;;3.70;99.90;;;;;;5109858;28;20380;-70
2020/12/17 04:02:51;;;;;;;;;;;3.70;99.90;;;;;;5093268;28;19939;-70
2020/12/17 04:05:17;;;;;;;;;;;3.70;99.90;;;;;;5093465;28;20335;-70
2020/12/17 04:07:44;;;;;;;;;;;3.60;99.90;;;;;;5093199;28;19932;-70
2020/12/17 04:10:10;;;;;;;;;;;3.70;99.90;;;;;;5093413;28;19931;-70
2020/12/17 04:12:36;;;;;;;;;;;3.60;99.90;;;;;;5093212;28;19924;-70
2020/12/17 04:15:03;;;;;;;;;;;3.60;99.90;;;;;;5093265;28;20388;-70
2020/12/17 04:17:29;;;;;;;;;;;3.60;99.90;;;;;;5093368;28;19978;-70
2020/12/17 04:19:54;;;;;;;;;;;3.50;99.90;;;;;;5093076;28;19924;-71
2020/12/17 04:22:20;;;;;;;;;;;3.50;99.90;;;;;;5092771;28;19924;-71
2020/12/17 04:24:48;;;;;;;;;;;3.50;99.90;;;;;;5092925;28;20284;-70
2020/12/17 04:27:14;;;;;;;;;;;3.40;99.90;;;;;;5093413;28;20285;-71
2020/12/17 04:29:40;;;;;;;;;;;3.40;99.90;;;;;;5113373;28;19969;-70
2020/12/17 04:32:06;;;;;;;;;;;3.40;99.90;;;;;;5112339;28;20540;-70
2020/12/17 04:34:32;;;;;;;;;;;3.40;99.90;;;;;;5112971;28;19923;-70
2020/12/17 04:36:58;;;;;;;;;;;3.40;99.90;;;;;;5112960;28;19928;-71
2020/12/17 04:39:24;;;;;;;;;;;3.40;99.90;;;;;;5113197;28;20033;-70
2020/12/17 04:41:52;;;;;;;;;;;3.40;99.90;;;;;;5113015;28;20399;-70
2020/12/17 04:44:18;;;;;;;;;;;3.40;99.90;;;;;;5112924;28;19927;-70
2020/12/17 04:46:49;;;;;;;;;;;3.30;99.90;;;;;;5113084;28;19923;-70
2020/12/17 04:49:18;;;;;;;;;;;3.30;99.90;;;;;;5113032;28;20407;-71
2020/12/17 04:51:47;;;;;;;;;;;3.30;99.90;;;;;;5113144;28;20346;-71
2020/12/17 04:54:13;;;;;;;;;;;3.30;99.90;;;;;;5092516;28;19977;-71
2020/12/17 04:56:41;;;;;;;;;;;3.30;99.90;;;;;;5107356;28;20437;-71
2020/12/17 04:59:09;;;;;;;;;;;3.30;99.90;;;;;;5112785;28;19924;-71
2020/12/17 05:01:38;;;;;;;;;;;3.30;99.90;;;;;;5112907;28;20446;-71
2020/12/17 05:04:04;;;;;;;;;;;3.30;99.90;;;;;;5112244;28;20335;-71
2020/12/17 05:06:30;;;;;;;;;;;3.20;99.90;;;;;;5112866;28;19924;-71
2020/12/17 05:08:56;;;;;;;;;;;3.20;99.90;;;;;;5113019;28;19924;-70
2020/12/17 05:11:22;;;;;;;;;;;3.20;99.90;;;;;;5112756;28;19928;-70
2020/12/17 05:13:48;;;;;;;;;;;3.20;99.90;;;;;;5112550;28;19927;-70
2020/12/17 05:16:15;;;;;;;;;;;3.20;99.90;;;;;;5112797;28;20503;-70
2020/12/17 05:18:41;;;;;;;;;;;3.20;99.90;;;;;;5099670;28;19924;-70
2020/12/17 05:21:07;;;;;;;;;;;3.10;99.90;;;;;;5092219;28;20281;-70
2020/12/17 05:23:33;;;;;;;;;;;3.10;99.90;;;;;;5100239;28;19928;-70
2020/12/17 05:26:00;;;;;;;;;;;3.10;99.90;;;;;;5112786;28;19938;-70
2020/12/17 05:28:26;;;;;;;;;;;3.10;99.90;;;;;;5112693;28;20285;-70
2020/12/17 05:30:52;;;;;;;;;;;3.10;99.90;;;;;;5112487;28;20291;-70
2020/12/17 05:33:20;;;;;;;;;;;3.10;99.90;;;;;;5112510;28;19924;-70
2020/12/17 05:35:47;;;;;;;;;;;3.00;99.90;;;;;;5112646;28;19932;-70
2020/12/17 05:38:13;;;;;;;;;;;3.00;99.90;;;;;;5104998;28;20282;-70
2020/12/17 05:40:39;;;;;;;;;;;3.00;99.90;;;;;;5092219;28;19924;-70
2020/12/17 05:43:06;;;;;;;;;;;3.00;99.90;;;;;;5091966;28;19924;-70
2020/12/17 05:45:32;;;;;;;;;;;;;;;;;;5095602;28;20375;-70
2020/12/17 05:48:11;;;;;;;;;;;2.90;99.90;;;;;;5101341;28;19924;-70
2020/12/17 05:50:51;;;;;;;;;;;2.90;99.90;;;;;;5116309;27;20382;-70
2020/12/17 05:53:17;;;;;;;;;;;2.90;99.90;;;;;;5115807;28;19927;-70
2020/12/17 05:55:43;;;;;;;;;;;2.90;99.90;;;;;;5116340;28;19984;-70
2020/12/17 05:58:10;;;;;;;;;;;2.90;99.90;;;;;;5116188;28;20036;-70
2020/12/17 06:00:36;;;;;;;;;;;2.80;99.90;;;;;;5116379;28;19924;-70
2020/12/17 06:03:02;;;;;;;;;;;2.80;99.90;;;;;;5116025;28;19946;-70
2020/12/17 06:05:30;;;;;;;;;;;2.80;99.90;;;;;;5112173;28;19931;-70
2020/12/17 06:07:58;;;;;;;;;;;2.80;99.90;;;;;;5095768;28;19924;-70
2020/12/17 06:10:25;;;;;;;;;;;2.70;99.90;;;;;;5095587;28;19931;-70
2020/12/17 06:12:52;;;;;;;;;;;2.70;99.90;;;;;;5095310;28;20373;-70
2020/12/17 06:15:19;;;;;;;;;;;2.70;99.90;;;;;;5095824;28;20002;-70
2020/12/17 06:17:49;;;;;;;;;;;2.60;99.90;;;;;;5095685;28;19924;-70
2020/12/17 06:20:15;;;;;;;;;;;2.60;99.90;;;;;;5099569;28;20334;-70
2020/12/17 06:22:43;;;;;;;;;;;2.60;99.90;;;;;;5115672;28;19924;-70
2020/12/17 06:25:11;;;;;;;;;;;2.70;99.90;;;;;;5115455;28;20372;-69
2020/12/17 06:27:38;;;;;;;;;;;2.60;99.90;;;;;;5115957;28;19932;-70
2020/12/17 06:30:05;;;;;;;;;;;2.50;99.90;;;;;;5115722;27;19923;-70
2020/12/17 06:32:33;;;;;;;;;;;2.50;99.90;;;;;;5115543;28;19977;-70
2020/12/17 06:34:59;;;;;;;;;;;2.50;99.90;;;;;;5096005;28;19935;-70
2020/12/17 06:37:26;;;;;;;;;;;2.50;99.90;;;;;;5095019;28;19924;-70
2020/12/17 06:39:52;;;;;;;;;;;2.50;99.90;;;;;;5095013;28;19977;-70
2020/12/17 06:42:31;;;;;;;;;;;2.50;99.90;;;;;;5094912;28;20320;-70
2020/12/17 06:44:57;;;;;;;;;;;2.50;99.90;;;;;;5094851;28;19924;-70
2020/12/17 06:47:27;;;;;;;;;;;2.50;99.90;;;;;;5094809;28;19977;-70
2020/12/17 06:49:52;;;;;;;;;;;2.50;99.90;;;;;;5094677;28;19931;-70
2020/12/17 06:52:18;;;;;;;;;;;2.40;99.90;;;;;;5094430;28;19928;-70
2020/12/17 06:54:44;;;;;;;;;;;2.40;99.90;;;;;;5107539;28;19928;-70
2020/12/17 06:57:11;;;;;;;;;;;2.40;99.90;;;;;;5109424;28;19924;-70
2020/12/17 06:59:38;;;;;;;;;;;2.40;99.90;;;;;;5094912;28;19931;-70
2020/12/17 07:02:05;;;;;;;;;;;2.40;99.90;;;;;;5094591;28;20292;-70
2020/12/17 07:04:35;;;;;;;;;;;2.40;99.90;;;;;;5094618;28;19931;-70
2020/12/17 07:07:08;;;;;;;;;;;2.40;99.90;;;;;;5094816;28;19924;-70
2020/12/17 07:09:34;;;;;;;;;;;2.50;99.90;;;;;;5094699;28;19989;-70
2020/12/17 07:12:00;;;;;;;;;;;2.50;99.90;;;;;;5094087;28;20370;-70
2020/12/17 07:14:33;;;;;;;;;;;2.50;99.90;;;;;;5094441;28;20019;-70
2020/12/17 07:17:01;;;;;;;;;;;2.50;99.90;;;;;;5094401;28;19928;-71
2020/12/17 07:19:28;;;;;;;;;;;2.50;99.90;;;;;;5094265;28;19924;-70
2020/12/17 07:21:58;;;;;;;;;;;2.60;99.90;;;;;;5106532;28;19937;-69
2020/12/17 07:24:25;;;;;;;;;;;2.50;99.90;;;;;;5114278;28;20077;-69
2020/12/17 07:26:53;;;;;;;;;;;2.50;99.90;;;;;;5112577;28;19976;-70
2020/12/17 07:29:19;;;;;;;;;;;2.50;99.90;;;;;;5114231;28;19932;-71
2020/12/17 07:31:45;;;;;;;;;;;2.60;99.90;;;;;;5113898;28;20414;-70
2020/12/17 07:34:15;;;;;;;;;;;2.60;99.90;;;;;;5114278;28;19923;-73
2020/12/17 07:36:45;;;;;;;;;;;2.60;99.90;;;;;;5114239;28;20399;-69
2020/12/17 07:39:11;;;;;;;;;;;2.60;99.90;;;;;;5098805;28;19943;-71
2020/12/17 07:41:37;;;;;;;;;;;2.70;99.90;;;;;;5093787;28;19924;-71
2020/12/17 07:44:03;;;;;;;;;;;2.70;99.90;;;;;;5093501;28;19924;-69
2020/12/17 07:46:37;;;;;;;;;;;2.80;99.90;;;;;;5093651;28;19981;-69
2020/12/17 07:49:18;;;;;;;;;;;2.80;99.90;;;;;;5093860;28;20308;-70
2020/12/17 07:51:45;;;;;;;;;;;2.90;99.90;;;;;;5093764;28;19924;-70
2020/12/17 07:54:11;;;;;;;;;;;3.10;99.90;;;;;;5110694;28;20303;-69
2020/12/17 07:56:37;;;;;;;;;;;3.30;99.90;;;;;;5113656;28;19939;-69
2020/12/17 07:59:06;;;;;;;;;;;3.60;99.90;;;;;;5113757;28;19955;-72
2020/12/17 08:01:32;;;;;;;;;;;3.80;99.90;;;;;;5114203;28;19971;-72
2020/12/17 08:03:58;;;;;;;;;;;4.10;99.90;;;;;;5113435;28;19966;-70
2020/12/17 08:06:25;;;;;;;;;;;4.20;99.90;;;;;;5102427;28;20385;-72
2020/12/17 08:08:53;;;;;;;;;;;4.50;99.90;;;;;;5093292;28;20377;-72
2020/12/17 08:11:19;;;;;;;;;;;4.80;99.90;;;;;;5093135;28;19974;-70
2020/12/17 08:13:45;;;;;;;;;;;5.10;99.90;;;;;;5093154;28;19928;-70
2020/12/17 08:16:11;;;;;;;;;;;5.70;99.90;;;;;;5100849;28;19928;-71
2020/12/17 08:18:37;;;;;;;;;;;6.00;99.90;;;;;;5113611;28;19938;-71
2020/12/17 08:21:07;;;;;;;;;;;6.10;99.90;;;;;;5113277;28;19927;-71
2020/12/17 08:23:33;;;;;;;;;;;6.50;99.90;;;;;;5113237;28;19924;-71
2020/12/17 08:26:01;;;;;;;;;;;7.10;99.90;;;;;;5113298;28;20288;-71
2020/12/17 08:28:31;;;;;;;;;;;7.20;99.90;;;;;;5113686;28;20365;-71
2020/12/17 08:31:07;;;;;;;;;;;7.30;99.90;;;;;;5113202;28;20367;-73
2020/12/17 08:33:34;;;;;;;;;;;7.40;99.90;;;;;;5106477;28;19931;-75
2020/12/17 08:36:01;;;;;;;;;;;7.10;99.90;;;;;;5092775;28;20487;-73
2020/12/17 08:38:27;;;;;;;;;;;6.60;99.90;;;;;;5092780;28;19924;-73
2020/12/17 08:40:55;;;;;;;;;;;6.20;99.90;;;;;;5092609;28;20381;-70
2020/12/17 08:43:24;;;;;;;;;;;6.30;99.90;;;;;;5092657;28;20002;-71
2020/12/17 08:45:51;;;;;;;;;;;6.50;99.90;;;;;;5092731;28;20335;-72
2020/12/17 08:48:18;;;;;;;;;;;6.30;99.90;;;;;;5092501;28;20395;-70
2020/12/17 08:50:45;;;;;;;;;;;6.10;99.90;;;;;;5092597;28;20525;-70
2020/12/17 08:53:20;;;;;;;;;;;6.00;99.90;;;;;;5092073;28;19924;-70
2020/12/17 08:55:59;;;;;;;;;;;5.50;99.90;;;;;;5092582;28;19925;-68
2020/12/17 08:58:27;;;;;;;;;;;5.00;99.90;;;;;;5092437;28;19931;-70
2020/12/17 09:00:53;;;;;;;;;;;4.70;99.90;;;;;;5095246;28;19924;-67
2020/12/17 09:03:20;;;;;;;;;;;4.50;99.90;;;;;;5112349;28;20021;-66
2020/12/17 09:06:00;;;;;;;;;;;4.30;99.90;;;;;;5112452;28;20280;-67
2020/12/17 09:08:26;;;;;;;;;;;4.30;99.90;;;;;;5112816;28;20334;-67
2020/12/17 09:10:52;;;;;;;;;;;4.30;99.90;;;;;;5112492;28;19924;-66
2020/12/17 09:13:19;;;;;;;;;;;4.30;99.90;;;;;;5112546;28;19977;-70
2020/12/17 09:15:55;;;;;;;;;;;4.20;99.90;;;;;;5112715;28;19931;-69
2020/12/17 09:18:21;;;;;;;;;;;4.10;99.90;;;;;;5092340;28;19930;-71
2020/12/17 09:20:47;;;;;;;;;;;4.10;99.90;;;;;;5096704;28;19924;-69
2020/12/17 09:23:13;;;;;;;;;;;4.10;99.90;;;;;;5096486;28;21580;-69
2020/12/17 09:25:39;;;;;;;;;;;4.20;99.90;;;;;;5096483;28;19981;-68
2020/12/17 09:28:18;;;;;;;;;;;4.20;99.90;;;;;;5096443;28;19924;-69
2020/12/17 09:30:43;;;;;;;;;;;4.20;99.90;;;;;;5096240;28;19924;-69
2020/12/17 09:33:17;;;;;;;;;;;4.20;99.90;;;;;;5096233;28;19985;-69
2020/12/17 09:35:43;;;;;;;;;;;4.20;99.90;;;;;;5096399;28;19935;-70
2020/12/17 09:38:12;;;;;;;;;;;4.20;99.90;;;;;;5096251;28;19928;-68
2020/12/17 09:40:38;;;;;;;;;;;4.20;99.90;;;;;;5096061;28;20402;-69
2020/12/17 09:43:05;;;;;;;;;;;4.20;99.90;;;;;;5095761;28;19931;-70
2020/12/17 09:45:32;;;;;;;;;;;4.30;99.90;;;;;;5095857;28;20369;-68
2020/12/17 09:47:58;;;;;;;;;;;4.40;99.90;;;;;;5096281;28;19928;-68
2020/12/17 09:50:25;;;;;;;;;;;4.50;99.90;;;;;;5096062;28;20403;-69
2020/12/17 09:52:51;;;;;;;;;;;4.60;99.90;;;;;;5095907;28;19924;-68
2020/12/17 09:55:17;;;;;;;;;;;4.70;99.90;;;;;;5095824;28;19932;-69
2020/12/17 09:57:44;;;;;;;;;;;4.80;99.90;;;;;;5095799;28;19924;-69
2020/12/17 10:00:11;;;;;;;;;;;5.00;99.90;;;;;;5095788;28;19931;-69
2020/12/17 10:02:37;;;;;;;;;;;5.00;99.90;;;;;;5095682;28;19977;-69
2020/12/17 10:05:04;;;;;;;;;;;5.20;99.90;;;;;;5095715;28;19931;-69
2020/12/17 10:07:30;;;;;;;;;;;5.40;99.90;;;;;;5095732;28;19924;-69
2020/12/17 10:09:56;;;;;;;;;;;5.50;99.90;;;;;;5095621;28;19924;-68
2020/12/17 10:12:24;;;;;;;;;;;5.80;99.90;;;;;;5095217;28;19985;-68
2020/12/17 10:14:50;;;;;;;;;;;5.80;99.90;;;;;;5095429;28;20373;-69
2020/12/17 10:17:16;;;;;;;;;;;6.00;99.90;;;;;;5095468;28;19924;-69
2020/12/17 10:19:42;;;;;;;;;;;6.30;99.90;;;;;;5095562;28;19969;-68
2020/12/17 10:22:08;;;;;;;;;;;6.20;99.90;;;;;;5095214;28;19924;-69
2020/12/17 10:24:34;;;;;;;;;;;6.10;99.90;;;;;;5095273;28;19931;-68
2020/12/17 10:27:01;;;;;;;;;;;6.00;99.90;;;;;;5095318;28;19974;-68
2020/12/17 10:29:27;;;;;;;;;;;6.00;99.90;;;;;;5095438;28;19924;-68
2020/12/17 10:31:54;;;;;;;;;;;6.30;99.90;;;;;;5095113;28;20441;-69
2020/12/17 10:34:20;;;;;;;;;;;6.30;99.90;;;;;;5094923;28;19927;-68
2020/12/17 10:36:46;;;;;;;;;;;6.40;99.90;;;;;;5095084;28;20393;-68
2020/12/17 10:39:13;;;;;;;;;;;6.50;99.90;;;;;;5095037;28;19924;-68
2020/12/17 10:41:40;;;;;;;;;;;6.70;99.90;;;;;;5095147;28;19932;-69
2020/12/17 10:44:06;;;;;;;;;;;6.90;99.90;;;;;;5094863;28;19924;-69
2020/12/17 10:46:32;;;;;;;;;;;6.90;99.90;;;;;;5095052;28;20010;-69
2020/12/17 10:48:58;;;;;;;;;;;7.00;99.90;;;;;;5095018;28;19924;-69
2020/12/17 10:51:24;;;;;;;;;;;7.30;99.90;;;;;;5094733;28;19924;-68
2020/12/17 10:53:50;;;;;;;;;;;7.70;99.90;;;;;;5094507;28;19924;-68
2020/12/17 10:56:16;;;;;;;;;;;8.00;99.90;;;;;;5094671;28;20368;-68
2020/12/17 10:58:43;;;;;;;;;;;8.10;99.90;;;;;;5094813;28;19928;-69
2020/12/17 11:01:09;;;;;;;;;;;8.20;99.90;;;;;;5094628;28;19928;-68
2020/12/17 11:03:35;;;;;;;;;;;8.60;99.90;;;;;;5094207;28;20410;-68
2020/12/17 11:06:01;;;;;;;;;;;8.90;99.90;;;;;;5094566;28;19931;-68
2020/12/17 11:08:28;;;;;;;;;;;9.50;99.90;;;;;;5094504;28;19924;-68
2020/12/17 11:10:54;;;;;;;;;;;10.00;99.90;;;;;;5094574;28;19977;-69
2020/12/17 11:13:20;;;;;;;;;;;10.10;99.90;;;;;;5094265;28;20343;-69
2020/12/17 11:15:49;;;;;;;;;;;9.80;99.90;;;;;;5094410;28;19924;-68
2020/12/17 11:18:15;;;;;;;;;;;9.70;99.90;;;;;;5093705;28;19996;-68
2020/12/17 11:20:41;;;;;;;;;;;9.80;99.90;;;;;;5093772;28;20300;-69
2020/12/17 11:23:07;;;;;;;;;;;9.90;99.90;;;;;;5093174;28;19931;-69
2020/12/17 11:25:36;;;;;;;;;;;9.50;99.90;;;;;;5093458;28;20399;-68
2020/12/17 11:28:02;;;;;;;;;;;9.40;99.90;;;;;;5093671;28;19925;-68
2020/12/17 11:30:28;;;;;;;;;;;9.70;99.90;;;;;;5093566;28;19924;-68
2020/12/17 11:32:55;;;;;;;;;;;9.70;99.90;;;;;;5093197;28;19924;-68
2020/12/17 11:35:21;;;;;;;;;;;9.60;99.90;;;;;;5093589;28;19931;-68
2020/12/17 11:37:50;;;;;;;;;;;9.70;99.90;;;;;;5093723;28;20305;-67
2020/12/17 11:40:16;;;;;;;;;;;9.50;99.90;;;;;;5093930;28;20034;-69
2020/12/17 11:42:42;;;;;;;;;;;9.20;99.90;;;;;;5093322;28;20312;-67
2020/12/17 11:45:08;;;;;;;;;;;8.80;99.90;;;;;;5093857;28;19930;-67
2020/12/17 11:47:34;;;;;;;;;;;8.60;99.90;;;;;;5093805;28;19924;-67
2020/12/17 11:50:01;;;;;;;;;;;8.20;99.90;;;;;;5093681;28;19924;-68
2020/12/17 11:52:27;;;;;;;;;;;8.10;99.90;;;;;;5093544;28;19924;-68
2020/12/17 11:54:53;;;;;;;;;;;7.90;99.90;;;;;;5093635;28;19966;-67
2020/12/17 11:57:19;;;;;;;;;;;7.70;99.90;;;;;;5093468;28;19935;-68
2020/12/17 11:59:45;;;;;;;;;;;7.60;99.90;;;;;;5093641;28;19924;-68
2020/12/17 12:02:11;;;;;;;;;;;7.60;99.90;;;;;;5093141;28;19995;-68
2020/12/17 12:04:37;;;;;;;;;;;7.30;99.90;;;;;;5093397;28;20297;-68
2020/12/17 12:07:04;;;;;;;;;;;7.20;99.90;;;;;;5093764;28;19928;-68
2020/12/17 12:09:31;;;;;;;;;;;7.20;99.90;;;;;;5093484;28;19924;-69
2020/12/17 12:11:57;;;;;;;;;;;7.30;99.90;;;;;;5093221;28;19947;-68
2020/12/17 12:14:23;;;;;;;;;;;7.30;99.90;;;;;;5093331;28;20369;-68
2020/12/17 12:16:50;;;;;;;;;;;7.10;99.90;;;;;;5093123;28;19932;-68
2020/12/17 12:19:16;;;;;;;;;;;7.30;99.90;;;;;;5093180;28;19978;-68
2020/12/17 12:21:46;;;;;;;;;;;7.40;99.90;;;;;;5093176;28;19935;-68
2020/12/17 12:24:13;;;;;;;;;;;7.60;99.90;;;;;;5093002;28;19924;-68
2020/12/17 12:26:39;;;;;;;;;;;7.50;99.90;;;;;;5092999;28;19981;-68
2020/12/17 12:29:05;;;;;;;;;;;7.40;99.90;;;;;;5092956;28;19924;-68
2020/12/17 12:31:31;;;;;;;;;;;7.80;99.90;;;;;;5092834;28;19924;-69
2020/12/17 12:33:57;;;;;;;;;;;8.00;99.90;;;;;;5092460;28;19947;-71
2020/12/17 12:36:23;;;;;;;;;;;8.40;99.90;;;;;;5093008;28;19924;-70
2020/12/17 12:38:49;;;;;;;;;;;8.40;99.90;;;;;;5093017;28;20289;-68
2020/12/17 12:41:18;;;;;;;;;;;8.40;99.90;;;;;;5092793;28;19924;-68
2020/12/17 12:43:44;;;;;;;;;;;8.40;99.90;;;;;;5092617;28;19924;-68
2020/12/17 12:46:10;;;;;;;;;;;8.40;99.90;;;;;;5092811;28;19931;-68
2020/12/17 12:48:36;;;;;;;;;;;8.50;99.90;;;;;;5092656;28;19928;-68
2020/12/17 12:51:02;;;;;;;;;;;8.80;99.90;;;;;;5092582;28;19924;-68
2020/12/17 12:53:30;;;;;;;;;;;8.90;99.90;;;;;;5091707;28;19924;-68
2020/12/17 12:55:56;;;;;;;;;;;8.70;99.90;;;;;;5092614;28;19924;-69
2020/12/17 12:58:23;;;;;;;;;;;8.40;99.90;;;;;;5092671;28;19993;-70
2020/12/17 13:00:50;;;;;;;;;;;8.10;99.90;;;;;;5092403;28;19928;-67
2020/12/17 13:03:16;;;;;;;;;;;8.00;99.90;;;;;;5092138;28;19924;-69
2020/12/17 13:05:42;;;;;;;;;;;8.20;99.90;;;;;;5092620;28;19973;-70
2020/12/17 13:08:08;;;;;;;;;;;8.40;99.90;;;;;;5092735;28;19924;-68
2020/12/17 13:10:34;;;;;;;;;;;9.00;99.90;;;;;;5092488;28;20350;-69
2020/12/17 13:13:01;;;;;;;;;;;9.30;99.90;;;;;;5092219;28;19963;-68
2020/12/17 13:15:28;;;;;;;;;;;9.60;99.90;;;;;;5092492;28;19932;-69
2020/12/17 13:17:54;;;;;;;;;;;9.40;99.90;;;;;;5092610;28;19928;-68
2020/12/17 13:20:20;;;;;;;;;;;9.10;99.90;;;;;;5092531;28;20273;-68
2020/12/17 13:22:46;;;;;;;;;;;8.70;99.90;;;;;;5092479;28;19924;-68
2020/12/17 13:25:11;;;;;;;;;;;8.40;99.90;;;;;;5092194;28;19924;-68
2020/12/17 13:27:37;;;;;;;;;;;8.60;99.90;;;;;;5092426;28;19949;-71
2020/12/17 13:30:03;;;;;;;;;;;8.70;99.90;;;;;;5092064;28;20328;-68
2020/12/17 13:32:31;;;;;;;;;;;8.70;99.90;;;;;;5092278;28;19931;-69
2020/12/17 13:34:57;;;;;;;;;;;8.50;99.90;;;;;;5092063;28;19931;-69
2020/12/17 13:37:23;;;;;;;;;;;8.40;99.90;;;;;;5092251;28;19924;-69
2020/12/17 13:39:49;;;;;;;;;;;8.50;99.90;;;;;;5092160;28;19990;-69
2020/12/17 13:42:15;;;;;;;;;;;8.60;99.90;;;;;;5091950;28;19935;-70
2020/12/17 13:44:41;;;;;;;;;;;8.80;99.90;;;;;;5092021;28;20400;-70
2020/12/17 13:47:07;;;;;;;;;;;8.60;99.90;;;;;;5092012;28;19928;-69
2020/12/17 13:49:33;;;;;;;;;;;8.60;99.90;;;;;;5092318;28;19924;-69
2020/12/17 13:51:59;;;;;;;;;;;8.40;99.90;;;;;;5091839;28;19928;-69
2020/12/17 13:54:25;;;;;;;;;;;8.20;99.90;;;;;;5091894;28;19931;-69
2020/12/17 13:56:51;;;;;;;;;;;8.00;99.90;;;;;;5091970;28;20412;-68
2020/12/17 13:59:17;;;;;;;;;;;7.90;99.90;;;;;;5091907;28;19924;-69
2020/12/17 14:01:43;;;;;;;;;;;7.80;99.90;;;;;;5092086;28;20343;-69
2020/12/17 14:04:09;;;;;;;;;;;7.60;99.90;;;;;;5091858;28;19928;-70
2020/12/17 14:06:36;;;;;;;;;;;7.50;99.90;;;;;;5095525;28;19940;-70
2020/12/17 14:09:02;;;;;;;;;;;7.40;99.90;;;;;;5095621;28;20278;-69
2020/12/17 14:11:28;;;;;;;;;;;7.20;99.90;;;;;;5095649;28;19924;-70
2020/12/17 14:13:54;;;;;;;;;;;7.10;99.90;;;;;;5095252;28;19924;-70
2020/12/17 14:16:20;;;;;;;;;;;7.00;99.90;;;;;;5095749;28;19981;-69
2020/12/17 14:18:49;;;;;;;;;;;6.80;99.90;;;;;;5095710;28;19931;-68
2020/12/17 14:21:18;;;;;;;;;;;6.70;99.90;;;;;;5095467;28;19977;-70
2020/12/17 14:23:45;;;;;;;;;;;6.60;99.90;;;;;;5095182;28;19950;-68
2020/12/17 14:26:11;;;;;;;;;;;6.60;99.90;;;;;;5095308;28;19924;-69
2020/12/17 14:28:37;;;;;;;;;;;6.60;99.90;;;;;;5095361;28;20392;-69